Aktualne dane pomiarowe

Uwaga, wersja testowa! Automatyczne pobieranie danych za pomocą narzędzi lub skryptów to umożliwiających jest zabronione.

Dane meteo z obszaru Polski uzyskane na podstawie depesz SYNOP pobieranych co godzinę z NWS. Najedź myszką na symbol przedstawiony w tabeli, aby uzyskać informacje co do jego znaczenia. Prosimy pamiętać, że to testowa wersja strony, która jeszcze nie jest ukończona. Stworzono również jest krótki FAQ dotyczący korzystania z tej podstrony Anomalie temperatury w chwili obecnej odniesione są do okresu referencyjnego 1951-2016. Okres ten będzie później zmieniony na 1981-2010. Kliknij ikonę aby pobrać plik CSV. Kliknij ikonę aby wygenerować mapę synoptyczną dla danego terminu.

Wybierz Datę:    

        

Mińsk Mazowiecki (12376)

Dane terminowe dla wybranej stacji. Kliknij datę, aby otrzymać dane z tego terminu dla wszystkich stacji.

TemperaturaZachmurzenieWiatrCiśnienieOpadyPogoda
 Data t td wb tx tn tg rh  Nt Nl Cl Cm Ch ws wd g1 g2 wx mslp ppp ch 24h 12h t ww ww w1 w2  
2019-06-22 23:00:00 15.6 9.5 11.8--- 6710.0wxwxwx4wx---1021.8 999.9 0.2---------
2019-06-22 22:00:00 16.6 10.0 12.5--- 6510.0wxwxwx4wx---1021.91000.0 0.6---------
2019-06-22 21:00:00 16.7 9.9 12.5--- 6410.0wx-wx3wx---1021.7 999.9 0.6---------
2019-06-22 20:00:00 17.4 10.3 13.0--- 6310.0wx-wx4wx---1021.5 999.7 0.4---------
2019-06-22 19:00:00 18.9 9.7 13.4--- 5510.0wx-wx3wx---1021.1 999.4 0.3---------
2019-06-22 18:00:00 21.0 9.3 14.2--- 4710.0wx-wx4wx---1020.8 999.3 0.2---------
2019-06-22 17:00:00 22.6 9.4 14.9--- 4310.0wxwxwxwx4wx---1020.7 999.3 -0.2---------
2019-06-22 16:00:00 23.5 9.9 15.5--- 4210.0wxwxwxwx4wx---1020.4 999.1 -0.8---------
2019-06-22 15:00:00 23.8 10.2 15.8--- 4210.0wxwxwxwx4wx---1020.4 999.1 -1.1---------
2019-06-22 14:00:00 23.8 8.3 14.9--- 3710.0wxwxwxwx5wx---1020.8 999.5 -1.0---------
2019-06-22 13:00:00 23.9 9.9 15.7--- 4110.0wxwxwxwx4wx---1021.2 999.9 -0.6---------
2019-06-22 12:00:00 23.4 10.5 15.7--- 4410.0wxwxwxwx4wx---1021.61000.2 -0.1---------
2019-06-22 11:00:00 23.3 13.5 17.1--- 5410.0wxwxwxwx3wx---1021.81000.5 0.3---------
2019-06-22 10:00:00 22.1 11.5 15.7--- 5110.0wx-wx5wx---1021.91000.5 0.7---------
2019-06-22 09:00:00 21.6 12.7 16.0--- 5710.0wx-wxwx4wx---1021.81000.3 0.9---------
2019-06-22 08:00:00 20.7 12.7 15.7--- 6010.0wx-wxwx4wx---1021.71000.2 1.3---------
2019-06-22 07:00:00 19.3 13.3 15.4--- 6810.0wxwxwx4wx---1021.4 999.8 1.3---------
2019-06-22 06:00:00 18.2 14.9 15.9--- 8110.0wxwxwx5wx---1021.1 999.4 1.5---------
2019-06-22 05:00:00 17.3 15.6 16.1--- 9010.0wxwxwx4wx---1020.6 998.9 1.7---------
2019-06-22 04:00:00 16.6 15.5 15.8--- 9310.0wxwxwx4wx---1020.3 998.5 1.7---------
2019-06-22 03:00:00 16.5 15.7 15.9--- 9510.0wxwxwx5wx---1019.7 997.9 1.7---------
2019-06-22 02:00:00 16.6 16.0 16.1--- 9610.0wxwxwx3wx---1018.9 997.2 1.4---------
2019-06-22 01:00:00 16.8 16.2 16.3--- 9610.0wxwxwxwx4wx---1018.5 996.8 1.5---------
2019-06-22 00:00:00 17.0 16.4 16.5--- 9610.0wxwxwxwx3wx---1017.9 996.2 1.0---------
2019-06-21 23:00:00 17.2 16.4 16.6--- 9510.0wxwxwxwx2wx---1017.5 995.8 1.2---------
2019-06-21 22:00:00 18.0 17.4 17.6--- 9610.0wxwxwxwx2wx---1016.9 995.3 0.9---------
2019-06-21 21:00:00 17.9 17.3 17.5--- 9610.0wx-wx1wx---1016.8 995.2 1.3---------
2019-06-21 20:00:00 18.2 17.4 17.6--- 9510.0wx-wxwx2wx---1016.2 994.6 0.3---------
2019-06-21 19:00:00 18.5 17.9 18.1--- 9610.0wxwxwxwx1wx---1015.9 994.4 1.5---wx-w1w2--
2019-06-21 18:00:00 18.8 18.0 18.2--- 956.0wxwxwxwx2wx---1015.4 993.9 1.9---wx-w1w2--
2019-06-21 17:00:00 20.1 18.2 18.7--- 896.0wxwxwxwx3wx---1015.7 994.3 1.5---wx-w1w2--
2019-06-21 16:00:00 23.3 17.5 19.3--- 7010.0wxwxwxwx1wx---1014.1 992.9 0.2---wx---
2019-06-21 15:00:00 21.6 19.0 19.7--- 8510.0wxwxwxwx2wx---1013.2 992.0 -1.0---------
2019-06-21 14:00:00 18.0 17.4 17.6--- 9610.0wxwxwxwx2wx---1014.3 992.8 0.1---wx-w1w2--
2019-06-21 13:00:00 17.4 16.8 17.0--- 9610.0wxwxwxwx1wx---1014.3 992.7 0.0---wx-w1w2--
2019-06-21 12:00:00 16.7 15.9 16.1--- 955.0wxwxwx3wx---1014.7 993.1 0.5---wx-w1w2--
2019-06-21 11:00:00 23.4 19.6 20.7--- 7910.0wxwxwxwx2wx---1013.8 992.7 0.2---wx-w1w2--
2019-06-21 10:00:00 27.2 19.3 21.8--- 6210.0wxwxwxwx2wx---1013.6 992.7 0.5---------
2019-06-21 09:00:00 25.1 18.6 20.6--- 6710.0wxwxwxwx2wx---1013.6 992.6 0.4---------
2019-06-21 08:00:00 23.5 18.8 20.2--- 7510.0wx-wxwx1wx---1013.6 992.5 0.6---------
2019-06-21 07:00:00 22.3 18.3 19.5--- 7810.0wx-wxwx1wx---1013.5 992.3 0.6---------
2019-06-21 06:00:00 20.9 17.5 18.5--- 8110.0wx-wxwx1wx---1013.5 992.2 1.0---------
2019-06-21 05:00:00 19.5 17.3 17.9--- 8710.0wxwxwxwxwx1wx---1013.3 991.9 1.4---------
2019-06-21 04:00:00 18.4 17.1 17.5--- 9210.0wxwxwxwx4wx---1013.3 991.8 1.8---------
2019-06-21 03:00:00 18.1 16.4 16.9--- 9010.0wxwxwxwx1wx---1012.7 991.2 0.6---------
2019-06-21 02:00:00 17.9 16.4 16.8--- 9110.0wxwxwxwx1wx---1012.0 990.5 -0.3---------
2019-06-21 01:00:00 18.4 16.9 17.3--- 9110.0wx-wx6wx---1011.4 990.0 -1.1---wx-w2--
2019-06-21 00:00:00 18.7 17.0 17.5--- 9010.0wxwxwxwx6wx---1012.0 990.6 0.4---wx---
2.1 ms

 

Print Friendly, PDF & Email